Accueil
METAR-TAF:

METAR-TAF

Aéroports :

Augusta, Maine, États-Unis

latitude: 44-19-14N, longitude: 069-47-50W, altitude: 107 m

Observation

Le bulletin a été fait il y a 58 minutes, à 16:53 UTC
Vent calme
Température 18°C
Humidité 88%
Pression 1009 hPa
Visibilité: 16.1 km
Ciel couvert à une hauteur de 5000 ft

METAR: KAUG 201653Z AUTO 00000KT 10SM OVC050 18/16 A2980 RMK AO2 SLP090 T01830156

Heure: 13:51 (17:51 UTC)

Prévision

Le bulletin a été fait il y a 11 minutes, à 17:40 UTC
Prévision valable du 20 à 18 UTC au 21 à 18 UTC
Vent 9 kt de nord-ouest
Visibilité: 10 km
Nuages fragmentés à une hauteur de 5000 ft
A partir de 21 à 0200 UTC
Vent 3 kt de direction variable
Visibilité: 10 km
Ciel clair
A partir de 21 à 1500 UTC
Vent 10 kt de ouest
Visibilité: 10 km
Ciel clair

TAF: KAUG 201740Z 2018/2118 31009KT P6SM BKN050 FM210200 VRB03KT P6SM SKC FM211500 26010KT P6SM SKC

Observations et prévisions météorologiques de plus de 4000 aéroports (messages METAR et TAF).

Les stations disponibles sont représentées par des disques jaunes et rouges sur la carte.

Passer la souris dessus pour voir le nom de la station.

Cliquer dessus pour voir les observations et prévisions météorologiques.

Pour changer de carte: cliquez sur les boutons verts avec une croix noire pour zoomer, sur le bouton vert avec un tiret pour effectuer un zoom arrière, ou sur les flèches vertes pour les cartes adjacentes.


METAR-TAF: